Time;durP1;ratioP1;P1;durP2;ratioP2;P2;SDS_P1;SDS_P2;PMS_P1;PMS_P2;Temp;Humidity;BMP_temperature;BMP_pressure;BME280_temperature;BME280_humidity;BME280_pressure;Samples;Min_cycle;Max_cycle;Signal;HPM_P1;HPM_P2
2021/10/07 00:01:31;;;;;;;7.83;4.03;;;;;;;8.80;100.00;101584.38;5045561;28;20404;-75
2021/10/07 00:03:59;;;;;;;4.07;3.67;;;;;;;8.81;100.00;101581.78;5037295;28;20217;-76
2021/10/07 00:06:27;;;;;;;5.90;3.93;;;;;;;8.77;100.00;101585.25;5044237;28;20723;-73
2021/10/07 00:08:53;;;;;;;5.77;3.97;;;;;;;8.79;100.00;101577.44;5037953;28;20211;-74
2021/10/07 00:11:19;;;;;;;7.13;4.00;;;;;;;8.81;100.00;101575.69;5043848;28;20234;-74
2021/10/07 00:13:46;;;;;;;6.27;3.77;;;;;;;8.88;100.00;101578.28;5040172;28;20201;-73
2021/10/07 00:16:13;;;;;;;5.60;3.87;;;;;;;8.85;100.00;101587.84;5043814;28;20225;-75
2021/10/07 00:18:41;;;;;;;4.33;3.90;;;;;;;8.84;100.00;101584.34;5045343;28;20920;-76
2021/10/07 00:21:08;;;;;;;6.93;4.17;;;;;;;8.77;100.00;101587.00;5049947;28;20223;-76
2021/10/07 00:23:41;;;;;;;4.40;3.60;;;;;;;8.76;100.00;101593.03;5048396;28;20196;-75
2021/10/07 00:26:07;;;;;;;6.70;4.10;;;;;;;8.76;100.00;101590.44;5050776;28;20272;-76
2021/10/07 00:28:33;;;;;;;7.57;3.60;;;;;;;8.72;100.00;101592.19;5046083;28;20203;-77
2021/10/07 00:31:02;;;;;;;7.63;4.00;;;;;;;8.77;100.00;101589.59;5048504;28;20234;-76
2021/10/07 00:33:34;;;;;;;4.80;3.90;;;;;;;8.83;100.00;101585.25;5048317;28;20210;-75
2021/10/07 00:36:11;;;;;;;4.10;3.50;;;;;;;8.87;100.00;101586.09;5048366;28;20281;-75
2021/10/07 00:41:23;;;;;;;4.90;3.47;;;;;;;8.82;100.00;101587.84;5040766;28;20594;-76
2021/10/07 00:43:50;;;;;;;5.57;3.20;;;;;;;8.68;100.00;101593.94;5046572;28;20205;-75
2021/10/07 00:46:16;;;;;;;4.97;3.83;;;;;;;8.59;100.00;101596.56;5038116;28;20671;-77
2021/10/07 00:48:42;;;;;;;4.23;3.27;;;;;;;8.55;100.00;101593.97;5043590;28;20201;-76
2021/10/07 00:51:09;;;;;;;5.60;3.97;;;;;;;8.62;100.00;101595.69;5041721;28;20235;-75
2021/10/07 00:53:35;;;;;;;4.83;3.33;;;;;;;8.59;100.00;101593.97;5042575;28;20208;-77
2021/10/07 00:56:03;;;;;;;4.27;3.37;;;;;;;8.43;100.00;101605.28;5044893;28;20229;-76
2021/10/07 00:58:31;;;;;;;4.50;3.23;;;;;;;8.31;100.00;101603.53;5040169;28;20295;-77
2021/10/07 01:00:57;;;;;;;3.47;3.00;;;;;;;8.23;100.00;101613.94;5047093;28;20227;-74
2021/10/07 01:03:24;;;;;;;5.63;3.13;;;;;;;8.29;100.00;101619.09;5046301;28;20234;-76
2021/10/07 01:05:50;;;;;;;6.13;3.67;;;;;;;8.13;100.00;101618.25;5042154;28;20203;-76
2021/10/07 01:08:16;;;;;;;4.53;3.47;;;;;;;8.02;100.00;101617.41;5043965;28;20211;-75
2021/10/07 01:10:43;;;;;;;3.63;3.00;;;;;;;7.94;100.00;101624.31;5043247;28;20223;-75
2021/10/07 01:13:12;;;;;;;3.77;3.17;;;;;;;8.00;100.00;101626.03;5029516;28;20695;-77
2021/10/07 01:15:41;;;;;;;7.87;3.77;;;;;;;7.89;100.00;101613.91;5046011;28;20225;-75
2021/10/07 01:18:07;;;;;;;8.23;3.50;;;;;;;7.76;100.00;101618.22;5044410;28;20200;-73
2021/10/07 01:20:37;;;;;;;4.43;3.40;;;;;;;7.73;100.00;101620.81;5037912;28;20259;-76
2021/10/07 01:23:03;;;;;;;5.33;3.70;;;;;;;7.65;100.00;101621.66;5038761;28;20207;-75
2021/10/07 01:25:33;;;;;;;5.37;3.27;;;;;;;7.64;100.00;101620.81;5039629;28;20203;-76
2021/10/07 01:27:59;;;;;;;3.93;3.50;;;;;;;7.61;100.00;101617.34;5041829;28;20261;-76
2021/10/07 01:30:26;;;;;;;7.00;3.63;;;;;;;7.48;100.00;101622.50;5035230;28;20318;-73
2021/10/07 01:32:55;;;;;;;5.93;3.40;;;;;;;7.33;100.00;101623.31;5042245;28;20210;-74
2021/10/07 01:35:22;;;;;;;4.07;3.60;;;;;;;7.34;100.00;101624.19;5039106;28;20937;-73
2021/10/07 01:37:50;;;;;;;7.63;3.50;;;;;;;7.15;100.00;101631.91;5040135;28;20207;-75
2021/10/07 01:40:17;;;;;;;5.30;3.43;;;;;;;7.17;100.00;101637.09;5039491;28;20226;-76
2021/10/07 01:42:43;;;;;;;4.77;3.43;;;;;;;7.10;100.00;101630.16;5045985;28;20215;-75
2021/10/07 01:45:11;;;;;;;4.73;3.10;;;;;;;7.00;100.00;101631.81;5038895;28;20326;-76
2021/10/07 01:47:37;;;;;;;3.60;3.27;;;;;;;6.96;100.00;101636.13;5045791;28;20207;-77
2021/10/07 01:50:06;;;;;;;3.97;3.23;;;;;;;6.87;100.00;101628.31;5041145;28;20214;-76
2021/10/07 01:52:32;;;;;;;4.27;3.30;;;;;;;6.90;100.00;101630.94;5044991;28;20207;-75
2021/10/07 01:55:00;;;;;;;5.03;3.20;;;;;;;6.88;100.00;101629.16;5042081;28;20668;-77
2021/10/07 01:57:26;;;;;;;4.13;3.03;;;;;;;6.88;100.00;101630.06;5048585;28;20230;-77
2021/10/07 01:59:53;;;;;;;3.60;3.30;;;;;;;6.90;100.00;101640.44;5039174;28;20393;-75
2021/10/07 02:02:19;;;;;;;4.73;3.63;;;;;;;6.86;100.00;101636.06;5047069;28;20191;-77
2021/10/07 02:04:45;;;;;;;6.30;3.83;;;;;;;6.68;100.00;101642.88;5046824;28;20684;-75
2021/10/07 02:07:12;;;;;;;6.33;3.80;;;;;;;6.62;100.00;101642.88;5047051;28;20629;-75
2021/10/07 02:09:38;;;;;;;5.70;3.10;;;;;;;6.58;100.00;101646.31;5043560;28;20203;-76
2021/10/07 02:12:07;;;;;;;5.77;3.47;;;;;;;6.55;100.00;101648.88;5048690;28;20329;-77
2021/10/07 02:14:34;;;;;;;3.63;3.33;;;;;;;6.47;100.00;101650.53;5030755;28;20210;-76
2021/10/07 02:17:01;;;;;;;5.30;3.43;;;;;;;6.40;100.00;101654.78;5044998;28;20697;-76
2021/10/07 02:19:27;;;;;;;5.33;3.83;;;;;;;6.38;100.00;101659.09;5037606;28;20218;-78
2021/10/07 02:21:53;;;;;;;4.50;3.60;;;;;;;6.40;100.00;101657.38;5047000;28;20230;-76
2021/10/07 02:24:20;;;;;;;4.07;3.27;;;;;;;6.40;100.00;101665.16;5042437;28;20499;-74
2021/10/07 02:26:46;;;;;;;4.37;3.40;;;;;;;6.36;100.00;101660.81;5044990;28;20200;-75
2021/10/07 02:29:14;;;;;;;3.70;3.40;;;;;;;6.30;100.00;101664.22;5042061;28;20207;-77
2021/10/07 02:31:40;;;;;;;4.07;3.23;;;;;;;6.27;100.00;101660.75;5044482;28;20227;-77
2021/10/07 02:34:07;;;;;;;3.97;3.33;;;;;;;6.34;100.00;101663.38;5041524;28;20206;-76
2021/10/07 02:36:33;;;;;;;9.40;3.83;;;;;;;6.36;100.00;101671.16;5045581;28;20215;-76
2021/10/07 02:38:59;;;;;;;4.63;3.70;;;;;;;6.22;100.00;101669.31;5038780;28;20688;-76
2021/10/07 02:41:26;;;;;;;4.33;3.60;;;;;;;6.21;100.00;101672.78;5026395;28;20867;-75
2021/10/07 02:43:53;;;;;;;7.23;3.70;;;;;;;6.17;100.00;101680.50;5036302;28;20214;-76
2021/10/07 02:46:20;;;;;;;5.40;3.70;;;;;;;6.11;100.00;101678.72;5041847;28;20202;-76
2021/10/07 02:48:47;;;;;;;5.53;3.83;;;;;;;6.07;100.00;101679.56;5036992;28;20207;-76
2021/10/07 02:51:13;;;;;;;4.33;3.33;;;;;;;6.11;100.00;101691.69;5040143;28;20250;-74
2021/10/07 02:53:39;;;;;;;5.00;3.50;;;;;;;6.09;100.00;101688.22;5037213;28;20203;-76
2021/10/07 02:56:06;;;;;;;5.50;3.60;;;;;;;5.98;100.00;101685.53;5046129;28;20234;-75
2021/10/07 02:58:33;;;;;;;5.37;3.27;;;;;;;6.17;100.00;101683.09;5040119;28;20199;-75
2021/10/07 03:01:00;;;;;;;6.47;4.07;;;;;;;6.09;100.00;101689.94;5043674;28;20227;-75
2021/10/07 03:03:28;;;;;;;4.47;3.60;;;;;;;6.11;100.00;101693.41;5042186;28;20204;-75
2021/10/07 03:05:54;;;;;;;4.90;3.97;;;;;;;5.95;100.00;101697.53;5042954;28;20734;-75
2021/10/07 03:08:23;;;;;;;5.80;3.97;;;;;;;5.81;100.00;101706.00;5039442;28;20208;-76
2021/10/07 03:10:50;;;;;;;4.47;4.07;;;;;;;5.84;100.00;101706.06;5040128;28;20326;-73
2021/10/07 03:13:16;;;;;;;5.20;4.17;;;;;;;5.88;100.00;101705.22;5025925;28;20695;-76
2021/10/07 03:15:43;;;;;;;5.53;4.37;;;;;;;5.82;100.00;101701.69;5045138;28;20885;-76
2021/10/07 03:18:09;;;;;;;5.13;4.00;;;;;;;5.77;100.00;101708.53;5042136;28;20219;-74
2021/10/07 03:20:37;;;;;;;5.70;4.13;;;;;;;5.70;100.00;101715.41;5042869;28;20825;-76
2021/10/07 03:23:03;;;;;;;7.07;4.10;;;;;;;5.75;100.00;101716.31;5041527;28;20195;-76
2021/10/07 03:25:30;;;;;;;4.77;3.80;;;;;;;5.69;100.00;101716.22;5044317;28;20205;-73
2021/10/07 03:27:56;;;;;;;6.03;3.73;;;;;;;5.60;100.00;101719.56;5040328;28;20291;-75
2021/10/07 03:30:22;;;;;;;5.60;3.77;;;;;;;5.59;100.00;101716.97;5043670;28;20230;-75
2021/10/07 03:32:49;;;;;;;4.50;3.87;;;;;;;5.48;100.00;101715.13;5045370;28;20199;-75
2021/10/07 03:35:15;;;;;;;6.37;3.53;;;;;;;5.50;100.00;101718.63;5039447;28;20211;-74
2021/10/07 03:37:43;;;;;;;5.07;4.13;;;;;;;5.45;100.00;101730.63;5040503;28;20227;-74
2021/10/07 03:40:11;;;;;;;4.77;3.80;;;;;;;5.36;100.00;101730.47;5045380;28;20207;-75
2021/10/07 03:42:38;;;;;;;4.87;3.73;;;;;;;5.31;100.00;101734.72;5041384;28;20207;-74
2021/10/07 03:45:07;;;;;;;4.63;3.73;;;;;;;5.45;100.00;101735.78;5044484;28;20421;-75
2021/10/07 03:47:34;;;;;;;5.27;3.93;;;;;;;5.42;100.00;101747.81;5043354;28;20213;-75
2021/10/07 03:50:00;;;;;;;5.33;3.77;;;;;;;5.44;100.00;101748.72;5043501;28;20576;-75
2021/10/07 03:52:27;;;;;;;5.10;4.20;;;;;;;5.43;100.00;101749.53;5043876;28;20684;-76
2021/10/07 03:54:55;;;;;;;5.97;3.93;;;;;;;5.33;100.00;101756.31;5045802;28;20203;-74
2021/10/07 03:57:23;;;;;;;6.03;3.97;;;;;;;5.31;100.00;101758.88;5042791;28;20215;-74
2021/10/07 03:59:50;;;;;;;3.67;3.17;;;;;;;5.36;100.00;101758.94;5040351;28;20202;-72
2021/10/07 04:02:17;;;;;;;5.60;3.90;;;;;;;5.30;100.00;101764.03;5045067;28;20499;-75
2021/10/07 04:04:43;;;;;;;4.43;3.10;;;;;;;5.21;100.00;101762.19;5044235;28;20230;-75
2021/10/07 04:07:10;;;;;;;5.30;3.70;;;;;;;5.13;100.00;101763.78;5039701;28;20204;-75
2021/10/07 04:09:36;;;;;;;4.73;3.53;;;;;;;5.16;100.00;101763.84;5040950;28;20240;-75
2021/10/07 04:12:04;;;;;;;5.00;3.30;;;;;;;5.08;100.00;101760.25;5040914;28;20219;-75
2021/10/07 04:14:30;;;;;;;3.93;3.53;;;;;;;5.15;100.00;101764.66;5041909;28;20196;-74
2021/10/07 04:16:57;;;;;;;4.27;3.17;;;;;;;5.15;100.00;101767.25;5041853;28;20223;-75
2021/10/07 04:19:23;;;;;;;4.60;3.57;;;;;;;5.10;100.00;101771.50;5040793;28;20207;-74
2021/10/07 04:21:50;;;;;;;8.17;3.17;;;;;;;5.03;100.00;101773.13;5040633;28;20219;-73
2021/10/07 04:24:16;;;;;;;4.67;3.03;;;;;;;4.97;100.00;101783.38;5023601;28;20208;-73
2021/10/07 04:26:43;;;;;;;3.40;3.03;;;;;;;5.02;100.00;101780.88;5028457;28;20203;-75
2021/10/07 04:29:11;;;;;;;4.93;3.50;;;;;;;4.96;100.00;101786.81;5041984;28;20704;-74
2021/10/07 04:31:38;;;;;;;4.53;3.47;;;;;;;5.16;100.00;101774.19;5041341;28;20237;-75
2021/10/07 04:34:05;;;;;;;3.60;3.17;;;;;;;5.23;100.00;101780.31;5041329;28;20254;-75
2021/10/07 04:36:31;;;;;;;4.73;3.47;;;;;;;5.06;100.00;101783.50;5042168;28;20231;-75
2021/10/07 04:38:58;;;;;;;5.50;3.63;;;;;;;5.11;100.00;101793.94;5033838;28;20199;-76
2021/10/07 04:41:24;;;;;;;6.27;3.40;;;;;;;5.02;100.00;101791.22;5040706;28;20220;-73
2021/10/07 04:43:50;;;;;;;4.53;3.47;;;;;;;4.94;100.00;101788.47;5044060;28;20720;-75
2021/10/07 04:46:21;;;;;;;3.90;3.40;;;;;;;4.90;100.00;101797.91;5042494;28;20679;-73
2021/10/07 04:48:48;;;;;;;4.53;3.63;;;;;;;4.75;100.00;101800.25;5039095;28;20211;-74
2021/10/07 04:51:14;;;;;;;4.57;3.47;;;;;;;4.71;100.00;101801.03;5047462;28;20230;-75
2021/10/07 04:53:41;;;;;;;5.30;3.53;;;;;;;4.74;100.00;101807.13;5026220;28;20204;-75
2021/10/07 04:56:07;;;;;;;4.17;3.50;;;;;;;4.92;100.00;101797.94;5040840;28;20202;-74
2021/10/07 04:58:34;;;;;;;5.73;3.60;;;;;;;4.80;100.00;101802.91;5037026;28;20223;-73
2021/10/07 05:01:00;;;;;;;7.53;3.47;;;;;;;4.87;100.00;101803.06;5037412;28;20220;-74
2021/10/07 05:03:28;;;;;;;5.17;3.30;;;;;;;4.96;100.00;101797.16;5036823;28;20246;-74
2021/10/07 05:05:54;;;;;;;4.33;3.63;;;;;;;4.77;100.00;101803.75;5031392;28;20839;-75
2021/10/07 05:08:21;;;;;;;4.17;3.07;;;;;;;4.72;100.00;101807.97;5028632;28;20204;-74
2021/10/07 05:10:47;;;;;;;5.00;3.10;;;;;;;4.65;100.00;101808.69;5024396;28;20230;-73
2021/10/07 05:13:14;;;;;;;4.37;3.27;;;;;;;4.67;100.00;101819.91;5038115;28;20203;-75
2021/10/07 05:15:41;;;;;;;4.23;3.10;;;;;;;4.59;100.00;101822.38;5041615;28;20738;-77
2021/10/07 05:18:07;;;;;;;4.10;3.10;;;;;;;4.62;100.00;101826.72;5038411;28;20215;-76
2021/10/07 05:20:35;;;;;;;5.47;3.20;;;;;;;4.74;100.00;101826.94;5043239;28;20305;-77
2021/10/07 05:23:02;;;;;;;3.23;2.93;;;;;;;4.84;100.00;101825.38;5039361;28;20207;-77
2021/10/07 05:25:29;;;;;;;3.73;3.10;;;;;;;4.74;100.00;101832.97;5043788;28;20675;-76
2021/10/07 05:27:55;;;;;;;4.80;3.17;;;;;;;4.62;100.00;101818.97;5039170;28;20195;-76
2021/10/07 05:30:21;;;;;;;5.33;3.20;;;;;;;4.50;100.00;101828.25;5043150;28;20227;-77
2021/10/07 05:32:48;;;;;;;5.17;3.67;;;;;;;4.81;100.00;101833.94;5039809;28;20209;-76
2021/10/07 05:35:14;;;;;;;10.60;4.10;;;;;;;4.91;100.00;101829.81;5044067;28;20203;-77
2021/10/07 05:37:42;;;;;;;8.63;5.03;;;;;;;4.83;100.00;101833.97;5040459;28;20229;-77
2021/10/07 05:40:09;;;;;;;12.97;5.80;;;;;;;4.90;100.00;101834.09;5044421;28;20298;-76
2021/10/07 05:42:36;;;;;;;10.33;5.73;;;;;;;4.84;100.00;101846.06;5042578;28;20286;-76
2021/10/07 05:45:02;;;;;;;10.03;5.70;;;;;;;4.79;100.00;101840.81;5042573;28;20203;-76
2021/10/07 05:47:29;;;;;;;11.33;5.87;;;;;;;4.83;100.00;101837.41;5037971;28;20243;-77
2021/10/07 05:49:55;;;;;;;15.17;6.67;;;;;;;5.08;100.00;101841.28;5029649;28;20215;-77
2021/10/07 05:52:21;;;;;;;14.47;7.47;;;;;;;4.97;100.00;101850.56;5039533;28;20279;-76
2021/10/07 05:54:49;;;;;;;17.43;9.17;;;;;;;5.17;100.00;101844.84;5043897;28;20921;-74
2021/10/07 05:57:15;;;;;;;21.80;9.17;;;;;;;5.14;100.00;101850.84;5039276;28;20211;-77
2021/10/07 05:59:42;;;;;;;17.50;10.17;;;;;;;4.97;100.00;101852.31;5045188;28;20196;-74
2021/10/07 06:02:08;;;;;;;17.50;8.73;;;;;;;5.01;100.00;101861.84;5038715;28;20234;-74
2021/10/07 06:04:34;;;;;;;21.30;9.77;;;;;;;5.27;100.00;101857.94;5045411;28;20203;-76
2021/10/07 06:07:01;;;;;;;20.53;10.33;;;;;;;5.29;100.00;101868.31;5038904;28;20242;-78
2021/10/07 06:09:27;;;;;;;26.57;11.27;;;;;;;5.05;100.00;101879.16;5045723;28;20211;-77
2021/10/07 06:11:55;;;;;;;20.73;10.43;;;;;;;5.20;100.00;101881.09;5038700;28;20223;-76
2021/10/07 06:14:23;;;;;;;15.53;7.90;;;;;;;5.39;100.00;101883.13;5043410;28;20215;-76
2021/10/07 06:16:52;;;;;;;14.63;8.30;;;;;;;5.41;100.00;101883.16;5038132;28;20218;-76
2021/10/07 06:19:19;;;;;;;14.60;7.60;;;;;;;5.32;100.00;101889.06;5038777;28;20211;-76
2021/10/07 06:21:45;;;;;;;16.63;7.27;;;;;;;5.59;100.00;101883.41;5034708;28;20227;-74
2021/10/07 06:24:12;;;;;;;15.23;7.27;;;;;;;5.57;100.00;101877.34;5044550;28;20214;-77
2021/10/07 06:26:38;;;;;;;10.70;6.87;;;;;;;5.75;100.00;101881.06;5041557;28;20213;-76
2021/10/07 06:29:06;;;;;;;11.30;6.90;;;;;;;5.91;100.00;101887.31;5043427;28;20772;-75
2021/10/07 06:31:33;;;;;;;10.80;6.83;;;;;;;5.93;100.00;101889.09;5040474;28;20223;-77
2021/10/07 06:34:00;;;;;;;13.73;7.67;;;;;;;6.06;100.00;101896.19;5044604;28;20301;-76
2021/10/07 06:36:26;;;;;;;10.83;7.07;;;;;;;6.19;100.00;101897.22;5040703;28;20215;-74
2021/10/07 06:38:52;;;;;;;13.23;6.97;;;;;;;6.31;100.00;101901.66;5040493;28;20230;-76
2021/10/07 06:41:19;;;;;;;15.67;7.40;;;;;;;6.42;100.00;101897.50;5042092;28;20841;-76
2021/10/07 06:43:46;;;;;;;10.33;6.63;;;;;;;6.42;100.00;101899.19;5045044;28;20219;-75
2021/10/07 06:46:13;;;;;;;16.77;7.47;;;;;;;6.43;100.00;101901.81;5042133;28;20199;-76
2021/10/07 06:48:40;;;;;;;13.37;7.63;;;;;;;6.51;100.00;101907.09;5045249;28;20589;-76
2021/10/07 06:51:09;;;;;;;12.97;7.87;;;;;;;6.66;100.00;101913.28;5041244;28;20223;-76
2021/10/07 06:53:36;;;;;;;11.30;8.00;;;;;;;6.64;100.00;101916.72;5047094;28;20218;-75
2021/10/07 06:56:03;;;;;;;10.67;7.57;;;;;;;6.57;100.00;101907.13;5042309;28;20253;-75
2021/10/07 06:58:30;;;;;;;12.80;7.87;;;;;;;6.67;100.00;101913.31;5046198;28;20226;-75
2021/10/07 07:00:56;;;;;;;16.80;8.53;;;;;;;6.75;100.00;101913.38;5042105;28;20614;-74
2021/10/07 07:03:24;;;;;;;10.80;7.50;;;;;;;6.88;100.00;101924.72;5045765;28;20571;-77
2021/10/07 07:05:50;;;;;;;13.37;8.10;;;;;;;6.93;100.00;101934.31;5040697;28;20203;-76
2021/10/07 07:08:17;;;;;;;10.80;7.47;;;;;;;7.00;100.00;101938.69;5043045;28;20206;-75
2021/10/07 07:10:43;;;;;;;12.73;8.37;;;;;;;7.01;100.00;101940.41;5044828;28;20258;-76
2021/10/07 07:13:09;;;;;;;14.50;8.10;;;;;;;7.18;100.00;101937.13;5043490;28;20250;-77
2021/10/07 07:15:36;;;;;;;14.13;7.70;;;;;;;7.30;100.00;101941.53;5044871;28;20230;-76
2021/10/07 07:18:02;;;;;;;15.90;8.30;;;;;;;7.35;100.00;101947.63;5041508;28;20220;-76
2021/10/07 07:20:30;;;;;;;10.77;7.33;;;;;;;7.41;100.00;101950.28;5042643;28;20687;-76
2021/10/07 07:22:56;;;;;;;14.27;8.40;;;;;;;7.48;100.00;101949.47;5040922;28;20204;-77
2021/10/07 07:25:23;;;;;;;13.77;8.50;;;;;;;7.59;100.00;101952.16;5047316;28;20204;-75
2021/10/07 07:27:49;;;;;;;12.43;8.63;;;;;;;7.66;100.00;101960.88;5043689;28;20199;-75
2021/10/07 07:30:16;;;;;;;17.67;8.90;;;;;;;7.74;100.00;101957.47;5045338;28;20231;-77
2021/10/07 07:32:42;;;;;;;13.97;9.07;;;;;;;7.83;100.00;101956.66;5040173;28;20281;-75
2021/10/07 07:35:09;;;;;;;17.30;9.60;;;;;;;7.84;100.00;101958.38;5045067;28;20199;-75
2021/10/07 07:37:37;;;;;;;15.30;9.63;;;;;;;7.90;100.00;101958.44;5044648;28;20224;-76
2021/10/07 07:40:05;;;;;;;16.77;9.43;;;;;;;8.01;100.00;101963.69;5047018;28;20285;-76
2021/10/07 07:42:31;;;;;;;14.73;9.47;;;;;;;8.10;100.00;101963.72;5045689;28;20207;-77
2021/10/07 07:44:57;;;;;;;15.63;8.30;;;;;;;8.21;100.00;101958.59;5048939;28;20199;-76
2021/10/07 07:47:24;;;;;;;15.23;8.90;;;;;;;8.31;100.00;101954.31;5043585;28;20238;-74
2021/10/07 07:49:50;;;;;;;13.23;7.90;;;;;;;8.31;100.00;101959.50;5049156;28;20206;-76
2021/10/07 07:52:17;;;;;;;13.40;8.67;;;;;;;8.39;100.00;101959.53;5047740;28;20756;-76
2021/10/07 07:54:44;;;;;;;14.57;9.13;;;;;;;8.51;100.00;101964.81;5051981;28;20801;-73
2021/10/07 07:57:11;;;;;;;15.60;8.43;;;;;;;8.65;100.00;101970.06;5041548;28;20677;-76
2021/10/07 07:59:37;;;;;;;12.43;8.00;;;;;;;8.77;100.00;101971.84;5051543;28;20230;-77
2021/10/07 08:02:04;;;;;;;16.00;8.60;;;;;;;8.81;100.00;101965.78;5046066;28;20227;-76
2021/10/07 08:04:30;;;;;;;14.27;8.37;;;;;;;8.94;100.00;101966.69;5051573;28;20204;-74
2021/10/07 08:06:56;;;;;;;12.57;7.60;;;;;;;9.06;100.00;101958.91;5049131;28;20217;-74
2021/10/07 08:09:25;;;;;;;11.57;8.10;;;;;;;9.11;100.00;101964.97;5050754;28;20213;-75
2021/10/07 08:11:53;;;;;;;14.73;7.83;;;;;;;9.29;100.00;101971.94;5042108;28;20315;-75
2021/10/07 08:14:19;;;;;;;11.63;7.07;;;;;;;9.36;100.00;101973.69;5051630;28;20215;-77
2021/10/07 08:16:46;;;;;;;12.77;7.07;;;;;;;9.50;100.00;101965.88;5047948;28;20197;-75
2021/10/07 08:19:12;;;;;;;9.27;6.63;;;;;;;9.55;100.00;101973.66;5051786;28;20230;-76
2021/10/07 08:21:41;;;;;;;6.90;5.33;;;;;;;9.69;100.00;101978.88;5049090;28;20749;-77
2021/10/07 08:24:10;;;;;;;11.13;5.90;;;;;;;9.82;100.00;101989.28;5052578;28;20297;-75
2021/10/07 08:26:36;;;;;;;8.13;5.07;;;;;;;9.93;100.00;101988.41;5037826;28;20203;-75
2021/10/07 08:29:04;;;;;;;8.10;4.50;;;;;;;10.01;100.00;101992.72;5053888;28;20242;-75
2021/10/07 08:31:31;;;;;;;4.83;3.90;;;;;;;10.07;100.00;101996.19;5046060;28;20611;-77
2021/10/07 08:33:57;;;;;;;7.90;4.23;;;;;;;10.17;100.00;102005.72;5053813;28;20207;-74
2021/10/07 08:36:23;;;;;;;5.67;4.10;;;;;;;10.24;100.00;101997.88;5021935;28;20313;-73
2021/10/07 08:38:50;;;;;;;4.90;3.63;;;;;;;10.35;100.00;101995.28;5052961;28;20800;-75
2021/10/07 08:41:16;;;;;;;4.20;3.67;;;;;;;10.44;100.00;102004.78;5043843;28;20864;-74
2021/10/07 08:43:49;;;;;;;5.27;3.30;;;;;;;10.55;100.00;102002.16;5051942;28;20203;-75
2021/10/07 08:46:17;;;;;;;3.80;3.40;;;;;;;10.66;100.00;102004.69;5051373;28;20199;-75
2021/10/07 08:48:43;;;;;;;4.80;3.20;;;;;;;10.70;100.00;101998.63;5046668;28;20206;-76
2021/10/07 08:51:09;;;;;;;6.43;3.03;;;;;;;10.79;100.00;101996.81;5046691;28;20231;-76
2021/10/07 08:53:36;;;;;;;6.20;3.10;;;;;;;10.80;100.00;102003.78;5055067;28;20205;-75
2021/10/07 08:56:05;;;;;;;4.60;3.00;;;;;;;10.91;100.00;102000.25;5049625;28;20619;-76
2021/10/07 08:58:32;;;;;;;3.63;3.20;;;;;;;11.02;100.00;101998.44;5052880;28;20218;-75
2021/10/07 09:00:58;;;;;;;4.90;3.13;;;;;;;11.09;100.00;101997.50;5049476;28;21097;-75
2021/10/07 09:03:26;;;;;;;3.63;2.70;;;;;;;11.17;100.00;102002.72;5054656;28;20206;-75
2021/10/07 09:06:09;;;;;;;3.50;3.00;;;;;;;11.27;100.00;102000.88;5050216;28;20210;-75
2021/10/07 09:08:43;;;;;;;5.17;3.47;;;;;;;11.34;100.00;101997.34;5054131;28;20195;-76
2021/10/07 09:11:11;;;;;;;3.60;3.03;;;;;;;11.50;98.69;102001.59;5051298;28;20257;-76
2021/10/07 09:13:37;;;;;;;3.20;2.90;;;;;;;11.69;97.51;101994.44;5054080;28;20212;-77
2021/10/07 09:16:04;;;;;;;4.27;3.10;;;;;;;11.75;96.87;101997.00;5051974;28;20218;-75
2021/10/07 09:18:32;;;;;;;6.33;3.33;;;;;;;11.85;94.34;101995.16;5050928;28;20270;-75
2021/10/07 09:21:00;;;;;;;3.60;2.60;;;;;;;11.93;96.38;101992.53;5049744;28;20645;-75
2021/10/07 09:23:31;;;;;;;4.33;2.80;;;;;;;11.98;97.13;101995.06;5052393;28;20200;-76
2021/10/07 09:26:01;;;;;;;4.47;2.80;;;;;;;12.04;98.11;101995.03;5052412;28;20204;-75
2021/10/07 09:28:30;;;;;;;3.90;2.67;;;;;;;12.21;96.98;101994.84;5054180;28;20349;-76
2021/10/07 09:30:59;;;;;;;4.60;2.77;;;;;;;12.32;96.66;101987.75;5053158;28;20233;-76
2021/10/07 09:33:30;;;;;;;2.90;2.50;;;;;;;12.43;93.65;101995.44;5052516;28;20208;-75
2021/10/07 09:36:11;;;;;;;5.07;2.80;;;;;;;12.52;93.56;101992.72;5051035;28;20206;-74
2021/10/07 09:38:38;;;;;;;4.23;2.47;;;;;;;12.69;92.09;101992.50;5049412;28;20218;-75
2021/10/07 09:41:09;;;;;;;5.77;2.20;;;;;;;12.81;93.46;101996.72;5054206;28;20225;-75
2021/10/07 09:43:41;;;;;;;6.03;2.83;;;;;;;12.78;89.88;101989.75;5049200;28;20208;-75
2021/10/07 09:46:08;;;;;;;3.53;2.23;;;;;;;12.83;90.37;101997.56;5052462;28;20683;-76
2021/10/07 09:48:38;;;;;;;4.03;2.70;;;;;;;12.88;92.03;101990.53;5046597;28;20696;-77
2021/10/07 09:51:14;;;;;;;5.03;2.80;;;;;;;12.93;92.04;101991.31;5050674;28;20663;-76
2021/10/07 09:53:43;;;;;;;4.93;3.00;;;;;;;12.95;92.04;101988.69;5045987;28;20199;-74
2021/10/07 09:56:24;;;;;;;2.70;2.43;;;;;;;13.03;92.01;101986.81;5051410;28;20264;-77
2021/10/07 09:58:50;;;;;;;3.40;2.40;;;;;;;13.16;91.11;101985.75;5044397;28;20214;-77
2021/10/07 10:01:18;;;;;;;4.20;2.30;;;;;;;13.29;88.24;101991.66;5053314;28;20218;-77
2021/10/07 10:03:45;;;;;;;2.87;2.20;;;;;;;13.43;87.39;101994.06;5048963;28;20213;-76
2021/10/07 10:06:13;;;;;;;4.53;2.30;;;;;;;13.58;87.40;101996.44;5052281;28;20209;-75
2021/10/07 10:08:40;;;;;;;4.10;1.77;;;;;;;13.58;85.58;101996.44;5050034;28;20203;-76
2021/10/07 10:11:06;;;;;;;3.27;1.90;;;;;;;13.61;84.84;101998.13;5040892;28;20227;-74
2021/10/07 10:13:34;;;;;;;2.90;1.83;;;;;;;13.73;83.06;102004.94;5038418;28;20214;-74
2021/10/07 10:16:00;;;;;;;3.13;2.00;;;;;;;13.91;84.22;101996.75;5040121;28;20203;-72
2021/10/07 10:18:28;;;;;;;3.13;1.93;;;;;;;14.02;82.36;101999.19;5045696;28;20239;-75
2021/10/07 10:20:55;;;;;;;3.40;1.70;;;;;;;14.04;78.35;102007.03;5048108;28;20223;-74
2021/10/07 10:23:24;;;;;;;1.73;1.50;;;;;;;14.07;78.67;102007.84;5050896;28;20253;-75
2021/10/07 10:25:54;;;;;;;3.60;1.57;;;;;;;14.20;78.38;102013.69;5052279;28;20211;-76
2021/10/07 10:28:29;;;;;;;3.23;1.80;;;;;;;14.23;77.83;102007.50;5048918;28;20676;-76
2021/10/07 10:31:04;;;;;;;3.53;1.90;;;;;;;14.27;77.74;102006.59;5041984;28;20237;-75
2021/10/07 10:33:33;;;;;;;2.10;1.60;;;;;;;14.33;77.98;102007.31;5040720;28;20714;-75
2021/10/07 10:35:59;;;;;;;5.07;1.60;;;;;;;14.51;77.17;102013.97;5040582;28;20237;-74
2021/10/07 10:38:29;;;;;;;2.70;1.60;;;;;;;14.65;78.41;102008.47;5038270;28;20211;-72
2021/10/07 10:41:09;;;;;;;3.03;1.73;;;;;;;14.74;75.83;102017.91;5038796;28;20230;-73
2021/10/07 10:43:36;;;;;;;3.10;1.60;;;;;;;14.76;75.23;102022.22;5041752;28;20701;-75
2021/10/07 10:46:13;;;;;;;3.70;1.90;;;;;;;14.77;77.37;102018.69;5039082;28;20203;-75
2021/10/07 10:49:03;;;;;;;2.57;1.67;;;;;;;14.81;75.75;102018.59;5041173;28;20761;-73
2021/10/07 10:51:35;;;;;;;2.13;1.50;;;;;;;14.83;76.06;102028.19;5019969;28;20237;-75
2021/10/07 10:54:12;;;;;;;3.97;1.70;;;;;;;14.93;74.85;102028.84;5040913;28;20673;-72
2021/10/07 10:57:00;;;;;;;2.03;1.43;;;;;;;14.96;74.57;102031.41;5040478;28;20212;-74
2021/10/07 10:59:30;;;;;;;2.50;1.60;;;;;;;15.07;76.03;102034.66;5035129;28;20222;-75
2021/10/07 11:02:27;;;;;;;4.17;1.30;;;;;;;15.09;73.22;102034.63;5036309;28;20229;-75
2021/10/07 11:04:55;;;;;;;2.80;1.47;;;;;;;15.18;72.69;102042.31;5039405;28;20250;-73
2021/10/07 11:07:27;;;;;;;2.37;1.70;;;;;;;15.13;72.81;102037.16;5038224;28;20200;-74
2021/10/07 11:10:00;;;;;;;1.90;1.20;;;;;;;15.15;75.02;102027.47;5038750;28;20297;-73
2021/10/07 11:12:32;;;;;;;1.90;1.50;;;;;;;15.25;74.67;102027.25;5040385;28;20238;-75
2021/10/07 11:14:59;;;;;;;3.67;1.30;;;;;;;15.32;72.25;102029.72;5037527;28;20215;-73
2021/10/07 11:17:29;;;;;;;1.93;1.13;;;;;;;15.37;72.00;102034.84;5043742;28;20291;-73
2021/10/07 11:19:56;;;;;;;1.40;1.20;;;;;;;15.42;70.64;102027.72;5038089;28;20219;-73
2021/10/07 11:22:23;;;;;;;1.87;1.40;;;;;;;15.50;71.59;102032.81;5042045;28;20215;-74
2021/10/07 11:24:51;;;;;;;3.37;1.60;;;;;;;15.53;71.40;102027.44;5043197;28;20209;-74
2021/10/07 11:27:32;;;;;;;3.47;1.50;;;;;;;15.58;72.25;102027.34;5044658;28;20230;-74